Rome, Italy
Current Conditions -  °F | °C
As of 10:15 AM on Friday 28 Nov 2014 (Local Time) from LIRA Reporting Station
Scattered Clouds Scattered Clouds  
Wind Chill: 64°   Ceiling: Unl
Heat Index: 64°   Visibility: 6mi
Dew Point: 46°   Wind: 5mph
Humidity: 52%   Direction: 90°E
Pressure: 29.83"   Gusts: NA
Location:  41.9°N, 12.48°E
Report Text: LIRA 280915Z 09004KT 9999 SCT040 SCT080 18/08 Q1010
Loading
Personal Weather Stations






























Interactive Weather Map New forecast layout! Learn more

10-Day Weather Forecast

Advertisements
Track Severe Weather on mobile